Time;durP1;ratioP1;P1;durP2;ratioP2;P2;SDS_P1;SDS_P2;PMS_P1;PMS_P2;Temp;Humidity;BMP_temperature;BMP_pressure;BME280_temperature;BME280_humidity;BME280_pressure;Samples;Min_cycle;Max_cycle;Signal;HPM_P1;HPM_P2
2023/04/28 00:01:20;;;;;;;1.35;1.25;;;;;;;12.75;62.03;101143.94;4995297;28;20038;-82
2023/04/28 00:03:59;;;;;;;1.77;1.40;;;;;;;12.68;59.72;101135.19;4979158;28;20046;-83
2023/04/28 00:06:27;;;;;;;2.05;1.50;;;;;;;12.58;60.57;101130.56;4995207;28;20374;-83
2023/04/28 00:08:55;;;;;;;4.00;1.33;;;;;;;12.50;60.01;101126.47;4995131;28;20050;-83
2023/04/28 00:11:23;;;;;;;3.03;1.63;;;;;;;12.53;59.57;101131.41;4995203;28;20477;-83
2023/04/28 00:13:51;;;;;;;3.30;1.50;;;;;;;12.45;59.89;101116.31;4995139;28;20038;-82
2023/04/28 00:16:19;;;;;;;1.48;1.30;;;;;;;12.41;60.96;101123.47;4995138;28;20054;-83
2023/04/28 00:18:47;;;;;;;1.73;1.55;;;;;;;12.34;62.69;101115.56;4994972;28;20469;-83
2023/04/28 00:21:16;;;;;;;1.90;1.35;;;;;;;12.32;61.25;101112.25;4994629;28;20053;-83
2023/04/28 00:23:44;;;;;;;2.50;1.30;;;;;;;12.30;61.37;101113.63;4994927;28;20054;-83
2023/04/28 00:26:12;;;;;;;2.28;1.30;;;;;;;12.21;60.98;101107.88;4977579;28;20055;-83
2023/04/28 00:28:43;;;;;;;2.47;1.45;;;;;;;12.29;61.42;101101.84;4977413;28;20532;-83
2023/04/28 00:31:21;;;;;;;5.78;1.80;;;;;;;12.32;60.80;101109.50;4977572;28;20042;-83
2023/04/28 00:33:58;;;;;;;3.90;1.83;;;;;;;12.34;63.13;101109.22;4977872;28;20045;-83
2023/04/28 00:36:30;;;;;;;2.38;1.25;;;;;;;12.32;63.70;101104.00;4994806;28;20047;-83
2023/04/28 00:38:58;;;;;;;1.45;1.30;;;;;;;12.25;65.54;101113.63;4994727;28;20046;-83
2023/04/28 00:41:26;;;;;;;3.63;1.92;;;;;;;12.13;65.74;101111.19;4994553;28;20053;-84
2023/04/28 00:43:54;;;;;;;3.35;2.15;;;;;;;12.07;66.11;101113.94;4993440;28;20051;-83
2023/04/28 00:46:32;;;;;;;4.63;1.70;;;;;;;11.99;67.10;101109.00;4977103;28;20057;-83
2023/04/28 00:49:01;;;;;;;3.53;2.22;;;;;;;11.97;67.17;101108.44;4994462;28;20050;-83
2023/04/28 00:51:32;;;;;;;2.65;2.20;;;;;;;11.89;67.18;101109.84;4977026;28;20553;-83
2023/04/28 00:54:00;;;;;;;3.65;2.55;;;;;;;11.87;68.48;101114.75;4976998;28;20034;-83
2023/04/28 00:56:30;;;;;;;3.13;2.58;;;;;;;11.91;68.29;101115.03;4995305;28;20054;-83
2023/04/28 00:58:57;;;;;;;3.13;2.58;;;;;;;11.94;68.37;101109.00;4996397;28;20042;-83
2023/04/28 01:01:35;;;;;;;3.22;2.40;;;;;;;11.94;69.01;101119.97;4996480;28;20042;-82
2023/04/28 01:04:12;;;;;;;2.78;2.25;;;;;;;11.85;70.23;101118.88;5013191;28;20045;-83
2023/04/28 01:06:43;;;;;;;3.05;2.60;;;;;;;11.78;69.91;101110.94;4996069;28;20057;-83
2023/04/28 01:09:11;;;;;;;3.85;2.50;;;;;;;11.83;71.46;101113.66;5013321;28;20389;-83
2023/04/28 01:11:39;;;;;;;4.13;2.45;;;;;;;11.75;71.41;101106.81;4995957;28;20050;-83
2023/04/28 01:14:12;;;;;;;2.88;2.60;;;;;;;11.76;71.26;101110.38;5013432;28;20049;-83
2023/04/28 01:16:41;;;;;;;3.50;2.53;;;;;;;11.76;72.05;101104.91;5013598;28;20046;-83
2023/04/28 01:19:19;;;;;;;3.17;2.67;;;;;;;11.76;71.49;101103.00;4995550;28;20046;-83
2023/04/28 01:21:48;;;;;;;4.60;2.92;;;;;;;11.81;71.54;101105.72;4995437;28;20131;-83
2023/04/28 01:24:19;;;;;;;3.25;2.78;;;;;;;11.83;71.39;101099.94;4995854;28;20041;-83
2023/04/28 01:26:47;;;;;;;3.67;2.80;;;;;;;11.85;71.85;101106.00;4995639;28;20122;-83
2023/04/28 01:29:15;;;;;;;4.57;2.90;;;;;;;11.83;73.67;101109.00;5012915;28;20049;-83
2023/04/28 01:31:43;;;;;;;3.88;2.90;;;;;;;11.77;73.77;101092.81;4995231;28;20377;-83
2023/04/28 01:34:11;;;;;;;3.78;2.97;;;;;;;11.76;72.83;101104.91;5012073;28;20046;-84
2023/04/28 01:36:39;;;;;;;5.18;2.97;;;;;;;11.86;73.77;101112.28;4995757;28;20492;-84
2023/04/28 01:39:09;;;;;;;3.97;2.55;;;;;;;11.76;74.28;101103.00;4995367;28;20484;-84
2023/04/28 01:41:39;;;;;;;4.30;3.00;;;;;;;11.74;74.19;101099.72;4995434;28;20046;-84
2023/04/28 01:44:08;;;;;;;3.30;2.50;;;;;;;11.80;74.80;101108.75;5012620;28;20057;-84
2023/04/28 01:46:35;;;;;;;3.30;2.75;;;;;;;11.78;73.21;101114.50;4995413;28;20054;-83
2023/04/28 01:49:04;;;;;;;3.90;3.15;;;;;;;11.82;73.87;101115.59;5012754;28;20404;-84
2023/04/28 01:51:33;;;;;;;4.25;2.90;;;;;;;11.77;73.86;101122.97;5012762;28;20052;-84
2023/04/28 01:54:02;;;;;;;3.80;2.95;;;;;;;11.76;74.34;101108.47;4994739;28;20049;-84
2023/04/28 01:56:30;;;;;;;3.55;2.90;;;;;;;11.82;74.77;101121.06;5012836;28;20057;-84
2023/04/28 01:58:58;;;;;;;6.63;3.10;;;;;;;11.86;74.00;101115.03;4978859;28;20515;-84
2023/04/28 02:01:26;;;;;;;5.63;3.10;;;;;;;11.93;75.42;101118.34;4995005;28;20484;-84
2023/04/28 02:03:55;;;;;;;3.47;2.85;;;;;;;11.89;74.20;101128.19;4994621;28;20057;-84
2023/04/28 02:06:23;;;;;;;5.70;3.00;;;;;;;11.89;74.17;101123.56;4995054;28;20046;-84
2023/04/28 02:08:51;;;;;;;6.47;3.95;;;;;;;11.92;73.93;101125.72;5012362;28;20511;-83
2023/04/28 02:11:19;;;;;;;4.15;3.35;;;;;;;11.91;74.76;101134.22;5012662;28;20046;-84
2023/04/28 02:13:47;;;;;;;6.03;3.38;;;;;;;11.89;74.28;101134.53;4993512;28;20053;-84
2023/04/28 02:16:15;;;;;;;4.70;3.08;;;;;;;11.89;75.12;101128.19;4992884;28;20066;-84
2023/04/28 02:18:43;;;;;;;5.13;3.70;;;;;;;11.86;75.88;101136.97;4975582;28;20073;-84
2023/04/28 02:21:12;;;;;;;5.80;2.92;;;;;;;11.81;75.84;101127.66;4992758;28;20105;-84
2023/04/28 02:23:39;;;;;;;4.10;3.20;;;;;;;11.63;75.71;101125.47;4992967;28;20046;-83
2023/04/28 02:26:07;;;;;;;6.05;3.15;;;;;;;11.79;74.44;101118.88;4978210;28;20053;-84
2023/04/28 02:28:35;;;;;;;4.35;3.47;;;;;;;11.82;74.39;101115.59;5012320;28;20057;-83
2023/04/28 02:31:07;;;;;;;4.93;3.33;;;;;;;11.93;75.55;101121.88;4994741;28;20381;-83
2023/04/28 02:33:36;;;;;;;5.88;3.38;;;;;;;12.04;73.83;101120.00;5012229;28;20057;-83
2023/04/28 02:36:05;;;;;;;6.57;3.47;;;;;;;12.05;72.83;101131.78;5012304;28;20046;-84
2023/04/28 02:38:33;;;;;;;4.35;3.33;;;;;;;12.18;75.50;101130.41;5012168;28;20049;-83
2023/04/28 02:41:04;;;;;;;4.43;3.40;;;;;;;12.12;72.79;101129.56;5012044;28;20042;-84
2023/04/28 02:43:32;;;;;;;3.65;3.20;;;;;;;12.15;73.70;101129.03;5012230;28;20396;-83
2023/04/28 02:46:04;;;;;;;5.25;3.45;;;;;;;11.94;75.53;101125.47;4994511;28;20042;-84
2023/04/28 02:48:34;;;;;;;3.78;3.00;;;;;;;11.83;76.08;101124.63;5012076;28;20049;-84
2023/04/28 02:51:02;;;;;;;4.82;3.55;;;;;;;11.89;73.22;101133.69;4994559;28;20046;-84
2023/04/28 02:53:32;;;;;;;3.53;2.97;;;;;;;11.68;76.83;101123.53;4978791;28;20041;-84
2023/04/28 02:56:01;;;;;;;6.68;3.47;;;;;;;11.77;73.90;101131.22;4994450;28;20057;-84
2023/04/28 02:58:29;;;;;;;4.90;3.67;;;;;;;11.74;74.68;101142.75;4994449;28;20393;-83
2023/04/28 03:00:57;;;;;;;4.90;3.40;;;;;;;11.65;73.51;101136.97;4998922;28;20046;-84
2023/04/28 03:03:25;;;;;;;6.03;3.85;;;;;;;11.62;73.99;101134.78;5001372;28;20481;-83
2023/04/28 03:05:55;;;;;;;6.18;3.72;;;;;;;11.49;72.34;101145.19;4994281;28;20065;-83
2023/04/28 03:08:23;;;;;;;6.20;3.85;;;;;;;11.60;73.11;101150.69;5015625;28;20046;-83
2023/04/28 03:10:53;;;;;;;5.03;3.25;;;;;;;11.59;73.11;101141.63;4998465;28;20038;-84
2023/04/28 03:13:21;;;;;;;5.63;3.38;;;;;;;11.61;73.18;101155.06;4998362;28;20065;-83
2023/04/28 03:15:51;;;;;;;4.03;3.55;;;;;;;11.59;73.40;101162.75;4998178;28;20061;-83
2023/04/28 03:18:19;;;;;;;5.20;3.72;;;;;;;11.61;73.49;101175.09;4998096;28;20052;-83
2023/04/28 03:20:47;;;;;;;4.57;3.50;;;;;;;11.56;73.37;101175.91;5015360;28;20504;-84
2023/04/28 03:23:15;;;;;;;4.43;3.80;;;;;;;11.31;75.15;101173.09;5015706;28;20368;-84
2023/04/28 03:25:43;;;;;;;5.22;3.83;;;;;;;11.27;75.03;101162.69;5015439;28;20104;-84
2023/04/28 03:28:11;;;;;;;3.45;3.15;;;;;;;11.25;75.78;101159.38;4998088;28;20048;-84
2023/04/28 03:30:40;;;;;;;7.45;4.47;;;;;;;11.21;76.72;101141.88;4997965;28;20488;-84
2023/04/28 03:33:07;;;;;;;6.13;3.60;;;;;;;11.22;77.21;101145.41;5015470;28;20046;-84
2023/04/28 03:35:36;;;;;;;4.25;3.67;;;;;;;11.24;77.03;101143.25;4997884;28;20523;-84
2023/04/28 03:38:04;;;;;;;6.72;4.00;;;;;;;11.21;78.19;101141.88;5015377;28;20054;-84
2023/04/28 03:40:33;;;;;;;6.75;4.70;;;;;;;11.21;77.32;101141.03;4997881;28;20068;-83
2023/04/28 03:43:11;;;;;;;4.88;3.80;;;;;;;11.25;77.33;101140.22;5015419;28;20046;-84
2023/04/28 03:46:03;;;;;;;6.95;4.70;;;;;;;11.16;77.29;101133.63;4989535;28;20046;-84
2023/04/28 03:48:31;;;;;;;6.82;4.00;;;;;;;11.25;76.65;101131.97;5015018;28;20503;-84
2023/04/28 03:50:59;;;;;;;7.05;4.13;;;;;;;11.38;76.71;101151.75;4997768;28;20072;-84
2023/04/28 03:53:27;;;;;;;8.95;4.10;;;;;;;11.33;77.87;101138.06;4997502;28;20053;-84
2023/04/28 03:55:55;;;;;;;5.28;4.15;;;;;;;11.27;79.29;101145.41;5014998;28;20515;-84
2023/04/28 03:58:24;;;;;;;7.75;4.40;;;;;;;11.28;78.80;101138.84;4997496;28;20046;-84
2023/04/28 04:00:53;;;;;;;5.45;3.58;;;;;;;11.32;80.63;101145.44;4997444;28;20042;-84
2023/04/28 04:03:24;;;;;;;5.75;4.10;;;;;;;11.15;81.60;101140.22;4997508;28;20053;-84
2023/04/28 04:05:55;;;;;;;6.72;3.95;;;;;;;11.07;81.06;101146.19;4997375;28;20081;-84
2023/04/28 04:08:24;;;;;;;4.28;3.88;;;;;;;11.04;80.22;101146.75;4997388;28;20052;-83
2023/04/28 04:10:54;;;;;;;7.22;3.83;;;;;;;11.04;79.31;101147.53;5014846;28;20064;-83
2023/04/28 04:13:22;;;;;;;5.85;4.50;;;;;;;11.07;79.24;101151.66;4981178;28;20050;-84
2023/04/28 04:15:51;;;;;;;5.13;3.95;;;;;;;11.12;78.38;101143.47;5014630;28;20404;-84
2023/04/28 04:18:21;;;;;;;4.35;3.80;;;;;;;11.15;78.29;101154.72;4996875;28;20065;-84
2023/04/28 04:21:18;;;;;;;8.20;3.97;;;;;;;11.11;78.61;101153.59;4996944;28;20053;-83
2023/04/28 04:23:48;;;;;;;7.25;4.50;;;;;;;11.12;78.10;101162.63;4997007;28;20045;-84
2023/04/28 04:26:16;;;;;;;6.35;3.85;;;;;;;11.01;81.76;101162.59;5014299;28;20054;-84
2023/04/28 04:28:46;;;;;;;9.30;4.45;;;;;;;11.08;79.18;101164.25;5014372;28;20037;-85
2023/04/28 04:31:15;;;;;;;5.38;4.00;;;;;;;11.24;79.64;101171.44;4995670;28;20050;-85
2023/04/28 04:33:43;;;;;;;6.00;4.75;;;;;;;11.41;78.44;101167.66;5014367;28;20053;-83
2023/04/28 04:36:11;;;;;;;6.93;3.83;;;;;;;11.44;78.25;101172.56;4997565;28;20034;-83
2023/04/28 04:38:40;;;;;;;6.13;4.40;;;;;;;11.45;79.85;101166.03;4997167;28;20042;-83
2023/04/28 04:41:21;;;;;;;5.55;3.97;;;;;;;11.56;78.44;101167.69;4997082;28;20050;-83
2023/04/28 04:43:56;;;;;;;5.80;4.07;;;;;;;11.63;80.48;101164.66;4995666;28;20503;-82
2023/04/28 04:46:29;;;;;;;5.47;3.90;;;;;;;11.78;77.31;101154.81;4971914;28;20059;-83
2023/04/28 04:48:57;;;;;;;6.32;3.72;;;;;;;11.90;78.32;101169.06;4994863;28;20038;-83
2023/04/28 04:51:26;;;;;;;7.43;4.10;;;;;;;11.95;76.68;101154.53;4977264;28;20497;-82
2023/04/28 04:53:54;;;;;;;6.63;4.28;;;;;;;12.05;76.26;101149.06;4994764;28;20046;-83
2023/04/28 04:56:22;;;;;;;6.88;4.47;;;;;;;12.13;76.32;101150.44;4977248;28;20153;-83
2023/04/28 04:58:51;;;;;;;4.30;3.80;;;;;;;12.14;76.84;101148.50;4980096;28;20046;-83
2023/04/28 05:01:37;;;;;;;4.85;4.15;;;;;;;12.17;77.39;101156.19;4996728;28;20046;-83
2023/04/28 05:04:05;;;;;;;5.32;4.05;;;;;;;12.15;76.81;101169.34;4976829;28;20049;-84
2023/04/28 05:06:36;;;;;;;8.27;4.75;;;;;;;12.24;76.15;101162.22;4986501;28;20496;-84
2023/04/28 05:09:04;;;;;;;6.35;3.95;;;;;;;12.32;75.79;101167.13;4980063;28;20046;-85
2023/04/28 05:11:33;;;;;;;5.63;4.30;;;;;;;12.33;76.01;101170.72;4996334;28;20401;-88
2023/04/28 05:14:02;;;;;;;4.72;3.67;;;;;;;12.37;75.43;101171.81;4996835;28;20396;-86
2023/04/28 05:16:30;;;;;;;4.55;3.90;;;;;;;12.41;75.67;101163.84;4980437;28;20053;-85
2023/04/28 05:19:02;;;;;;;5.70;4.00;;;;;;;12.58;74.33;101179.97;4996399;28;20038;-85
2023/04/28 05:21:31;;;;;;;5.20;3.67;;;;;;;12.65;74.07;101174.22;4979840;28;20058;-85
2023/04/28 05:23:59;;;;;;;5.82;4.15;;;;;;;12.74;73.91;101183.50;4980221;28;20046;-86
2023/04/28 05:26:27;;;;;;;6.30;4.13;;;;;;;12.68;73.80;101187.34;4996298;28;20052;-85
2023/04/28 05:28:59;;;;;;;5.18;3.88;;;;;;;12.84;73.23;101193.63;4995813;28;20046;-86
2023/04/28 05:31:27;;;;;;;3.75;3.10;;;;;;;12.86;73.82;101195.00;4996049;28;20810;-86
2023/04/28 05:33:55;;;;;;;4.85;3.67;;;;;;;12.95;74.70;101186.19;4980275;28;20038;-86
2023/04/28 05:36:25;;;;;;;5.68;3.80;;;;;;;12.91;73.16;101191.41;4996061;28;20500;-86
2023/04/28 05:38:53;;;;;;;7.15;3.80;;;;;;;12.90;73.51;101190.59;4996008;28;20050;-86
2023/04/28 05:41:21;;;;;;;8.18;4.30;;;;;;;13.09;73.08;101198.19;4980597;28;20038;-76
2023/04/28 05:43:50;;;;;;;8.90;4.43;;;;;;;13.56;71.17;101200.72;4995538;28;20377;-77
2023/04/28 05:46:18;;;;;;;7.35;3.83;;;;;;;13.70;69.86;101206.41;5012947;28;20041;-77
2023/04/28 05:48:58;;;;;;;9.65;3.22;;;;;;;14.05;69.17;101207.25;5013283;28;20064;-75
2023/04/28 05:51:30;;;;;;;6.40;3.65;;;;;;;14.07;68.36;101190.41;4995995;28;20117;-75
2023/04/28 05:53:58;;;;;;;5.07;3.55;;;;;;;14.08;68.50;101195.66;4995900;28;20480;-75
2023/04/28 05:56:28;;;;;;;5.97;3.65;;;;;;;14.07;68.66;101193.19;4995734;28;20056;-75
2023/04/28 05:58:57;;;;;;;6.90;3.63;;;;;;;14.37;68.32;101194.84;4995813;28;20381;-75
2023/04/28 06:01:25;;;;;;;6.25;4.03;;;;;;;14.58;67.71;101199.31;4995399;28;20050;-75
2023/04/28 06:03:55;;;;;;;6.47;4.30;;;;;;;14.74;66.14;101210.97;4995643;28;20042;-75
2023/04/28 06:06:26;;;;;;;5.22;3.72;;;;;;;14.78;65.52;101207.38;4995553;28;20045;-74
2023/04/28 06:08:54;;;;;;;5.32;3.42;;;;;;;15.00;64.96;101219.78;4995492;28;20066;-77
2023/04/28 06:11:22;;;;;;;5.03;3.38;;;;;;;15.01;64.24;101232.47;5013066;28;20482;-75
2023/04/28 06:13:50;;;;;;;6.32;3.97;;;;;;;15.15;64.23;101226.25;4995407;28;20041;-75
2023/04/28 06:16:18;;;;;;;5.68;4.03;;;;;;;15.36;63.82;101234.25;4995478;28;20390;-75
2023/04/28 06:18:47;;;;;;;7.78;3.75;;;;;;;15.29;64.69;101238.19;4979477;28;20049;-75
2023/04/28 06:21:18;;;;;;;6.47;4.03;;;;;;;15.27;66.16;101228.56;4995132;28;20058;-75
2023/04/28 06:23:48;;;;;;;7.50;3.97;;;;;;;15.36;64.91;101228.72;5012967;28;20053;-75
2023/04/28 06:26:17;;;;;;;5.25;4.22;;;;;;;15.43;65.60;101220.91;4995178;28;20050;-75
2023/04/28 06:28:45;;;;;;;8.02;3.67;;;;;;;15.45;65.60;101208.44;4994918;28;20489;-75
2023/04/28 06:31:13;;;;;;;6.82;4.28;;;;;;;15.31;65.60;101208.38;4995106;28;20046;-75
2023/04/28 06:33:41;;;;;;;5.90;4.20;;;;;;;15.24;65.90;101204.34;5012800;28;20038;-74
2023/04/28 06:36:12;;;;;;;6.25;4.00;;;;;;;15.34;65.35;101211.66;5012596;28;20046;-74
2023/04/28 06:38:42;;;;;;;6.70;4.18;;;;;;;15.40;64.20;101199.44;4995184;28;20061;-74
2023/04/28 06:41:10;;;;;;;8.55;4.05;;;;;;;15.48;64.52;101211.75;5011454;28;20076;-75
2023/04/28 06:43:40;;;;;;;7.10;3.95;;;;;;;15.69;64.12;101223.31;4995055;28;20400;-75
2023/04/28 06:46:12;;;;;;;4.60;3.20;;;;;;;15.87;63.62;101229.09;4995101;28;20053;-75
2023/04/28 06:48:42;;;;;;;6.72;4.57;;;;;;;15.85;65.46;101226.63;5012247;28;20072;-75
2023/04/28 06:51:10;;;;;;;6.88;4.18;;;;;;;15.84;64.49;101236.84;5012337;28;20042;-74
2023/04/28 06:53:38;;;;;;;7.85;4.38;;;;;;;15.87;64.91;101229.91;4994724;28;20054;-75
2023/04/28 06:56:07;;;;;;;6.57;4.22;;;;;;;15.96;65.18;101228.16;4994809;28;20045;-75
2023/04/28 06:58:38;;;;;;;10.82;4.50;;;;;;;16.10;64.30;101233.72;5012507;28;20045;-74
2023/04/28 07:01:06;;;;;;;5.47;3.97;;;;;;;16.05;64.03;101231.03;5012242;28;20046;-75
2023/04/28 07:03:33;;;;;;;7.13;4.15;;;;;;;16.21;63.72;101219.72;5012348;28;20050;-75
2023/04/28 07:06:02;;;;;;;6.15;3.75;;;;;;;16.29;62.54;101216.28;5012232;28;20405;-74
2023/04/28 07:08:30;;;;;;;9.50;4.25;;;;;;;16.49;62.30;101211.50;5012085;28;20054;-75
2023/04/28 07:10:58;;;;;;;9.52;4.22;;;;;;;16.52;61.66;101208.13;5012376;28;20046;-75
2023/04/28 07:13:26;;;;;;;11.88;4.00;;;;;;;16.72;60.11;101208.88;5012292;28;20046;-75
2023/04/28 07:15:54;;;;;;;6.97;3.65;;;;;;;16.75;58.98;101202.72;5012250;28;20038;-75
2023/04/28 07:18:22;;;;;;;6.50;3.55;;;;;;;16.83;59.26;101202.00;5012090;28;20053;-75
2023/04/28 07:20:50;;;;;;;5.35;4.05;;;;;;;16.90;56.87;101216.25;4994276;28;20053;-75
2023/04/28 07:23:18;;;;;;;6.45;3.28;;;;;;;16.89;57.16;101214.59;5011899;28;20053;-75
2023/04/28 07:25:46;;;;;;;6.32;3.75;;;;;;;17.06;57.42;101218.72;4994603;28;20374;-75
2023/04/28 07:28:14;;;;;;;6.97;4.40;;;;;;;17.15;56.56;101221.56;5011710;28;20058;-75
2023/04/28 07:30:41;;;;;;;7.18;3.67;;;;;;;17.09;55.89;101218.09;5011726;28;20046;-75
2023/04/28 07:33:09;;;;;;;5.13;3.88;;;;;;;17.26;54.76;101222.19;5011827;28;20046;-75
2023/04/28 07:35:37;;;;;;;4.55;2.83;;;;;;;17.41;54.08;101221.03;4994421;28;20052;-75
2023/04/28 07:38:05;;;;;;;6.07;3.55;;;;;;;17.57;53.52;101218.72;5011731;28;20465;-75
2023/04/28 07:40:33;;;;;;;7.80;3.53;;;;;;;17.54;51.59;101222.13;5011582;28;20053;-75
2023/04/28 07:43:02;;;;;;;9.00;3.83;;;;;;;17.66;52.23;101225.16;5011690;28;20050;-75
2023/04/28 07:45:30;;;;;;;5.10;3.08;;;;;;;17.45;50.31;101217.31;4994306;28;20057;-75
2023/04/28 07:47:58;;;;;;;3.70;2.53;;;;;;;17.41;48.86;101219.06;5011657;28;20053;-75
2023/04/28 07:50:27;;;;;;;5.15;3.15;;;;;;;17.72;50.22;101221.13;4994434;28;20489;-75
2023/04/28 07:52:56;;;;;;;5.45;2.70;;;;;;;17.75;46.90;101232.69;5012941;28;20046;-75
2023/04/28 07:55:24;;;;;;;2.10;1.98;;;;;;;17.58;47.06;101221.19;4997903;28;20049;-75
2023/04/28 07:57:53;;;;;;;1.90;1.80;;;;;;;17.72;45.37;101223.06;5015346;28;20400;-75
2023/04/28 08:00:21;;;;;;;2.17;1.42;;;;;;;17.79;45.74;101223.44;5015182;28;20045;-75
2023/04/28 08:02:49;;;;;;;5.03;2.10;;;;;;;17.60;44.27;101232.75;5015289;28;20046;-75
2023/04/28 08:05:17;;;;;;;2.50;1.75;;;;;;;17.73;44.24;101225.53;5015221;28;20050;-75
2023/04/28 08:07:45;;;;;;;2.35;1.60;;;;;;;17.75;45.03;101225.22;5015069;28;20042;-75
2023/04/28 08:10:13;;;;;;;2.08;1.70;;;;;;;17.83;45.57;101218.94;5015057;28;20050;-75
2023/04/28 08:12:41;;;;;;;1.90;1.63;;;;;;;17.82;42.15;101225.59;5015075;28;20507;-75
2023/04/28 08:15:09;;;;;;;2.63;1.55;;;;;;;17.75;40.89;101219.69;4996919;28;20038;-75
2023/04/28 08:17:37;;;;;;;2.10;1.50;;;;;;;17.82;39.86;101228.38;5015399;28;20450;-75
2023/04/28 08:20:06;;;;;;;2.55;1.40;;;;;;;17.81;41.03;101225.91;5014829;28;20053;-75
2023/04/28 08:22:34;;;;;;;2.97;1.42;;;;;;;17.90;41.86;101221.28;5014769;28;20061;-75
2023/04/28 08:25:02;;;;;;;3.28;1.90;;;;;;;18.17;43.02;101216.75;5014775;28;20041;-75
2023/04/28 08:27:30;;;;;;;2.80;1.70;;;;;;;18.30;41.98;101219.75;5014771;28;20045;-75
2023/04/28 08:29:59;;;;;;;3.17;1.80;;;;;;;18.33;41.81;101213.59;5014772;28;20079;-75
2023/04/28 08:32:27;;;;;;;6.38;2.00;;;;;;;18.45;41.69;101211.03;5014832;28;20041;-75
2023/04/28 08:34:55;;;;;;;4.47;1.88;;;;;;;18.48;42.20;101204.03;5014673;28;20406;-75
2023/04/28 08:37:23;;;;;;;1.90;1.45;;;;;;;18.32;40.05;101200.88;5014561;28;20049;-75
2023/04/28 08:39:58;;;;;;;2.35;1.90;;;;;;;18.51;40.70;101201.44;5014477;28;20049;-75
2023/04/28 08:42:31;;;;;;;2.08;1.65;;;;;;;18.40;38.26;101202.88;5014621;28;20489;-75
2023/04/28 08:44:59;;;;;;;2.03;1.60;;;;;;;18.59;40.53;101190.72;4997045;28;20046;-75
2023/04/28 08:47:35;;;;;;;2.95;1.60;;;;;;;18.59;39.77;101187.94;5014430;28;20060;-75
2023/04/28 08:50:05;;;;;;;3.40;1.60;;;;;;;18.66;38.82;101193.84;5014352;28;20503;-75
2023/04/28 08:52:35;;;;;;;1.98;1.60;;;;;;;18.48;40.04;101196.53;5014654;28;20057;-75
2023/04/28 08:55:10;;;;;;;1.90;1.50;;;;;;;18.68;40.08;101197.13;5014193;28;20381;-75
2023/04/28 08:57:42;;;;;;;2.58;2.17;;;;;;;18.66;40.29;101196.59;5014191;28;20052;-75
2023/04/28 09:00:11;;;;;;;1.60;1.50;;;;;;;18.68;41.82;101202.66;5014029;28;20507;-75
2023/04/28 09:02:41;;;;;;;2.80;2.08;;;;;;;18.74;41.33;101193.06;5010745;28;20046;-75
2023/04/28 09:05:11;;;;;;;3.83;2.53;;;;;;;18.81;42.09;101200.91;4993192;28;20378;-75
2023/04/28 09:07:40;;;;;;;4.93;2.47;;;;;;;18.80;43.02;101207.59;4993807;28;20053;-75
2023/04/28 09:10:17;;;;;;;3.10;2.30;;;;;;;19.09;42.48;101205.41;4992759;28;20071;-75
2023/04/28 09:12:48;;;;;;;2.40;1.77;;;;;;;19.22;41.86;101198.09;4994269;28;20058;-75
2023/04/28 09:15:30;;;;;;;4.88;3.00;;;;;;;19.06;42.66;101204.91;4994086;28;20512;-75
2023/04/28 09:18:05;;;;;;;3.25;2.20;;;;;;;19.25;41.94;101198.25;4993752;28;20050;-75
2023/04/28 09:20:35;;;;;;;3.85;2.58;;;;;;;19.29;42.55;101188.16;4993875;28;20058;-75
2023/04/28 09:23:20;;;;;;;3.00;2.25;;;;;;;19.57;40.70;101195.34;4994172;28;20389;-75
2023/04/28 09:26:04;;;;;;;2.80;2.20;;;;;;;19.47;41.61;101186.19;4993950;28;20046;-75
2023/04/28 09:28:35;;;;;;;2.25;2.08;;;;;;;19.33;39.35;101191.91;4993765;28;20489;-75
2023/04/28 09:31:03;;;;;;;3.20;1.92;;;;;;;18.97;38.59;101187.41;4993837;28;20508;-75
2023/04/28 09:33:31;;;;;;;2.60;1.98;;;;;;;18.91;39.31;101188.69;4993753;28;20043;-75
2023/04/28 09:36:00;;;;;;;2.78;1.90;;;;;;;18.94;39.17;101193.59;4993718;28;20397;-75
2023/04/28 09:38:28;;;;;;;4.90;2.10;;;;;;;19.09;39.49;101206.22;4976464;28;20050;-74
2023/04/28 09:41:01;;;;;;;2.03;1.65;;;;;;;19.32;39.36;101212.47;4993441;28;20046;-75
2023/04/28 09:43:31;;;;;;;2.50;1.87;;;;;;;19.56;38.23;101208.41;4993635;28;20054;-75
2023/04/28 09:46:01;;;;;;;2.50;1.60;;;;;;;19.69;38.13;101201.06;4993765;28;20069;-75
2023/04/28 09:48:37;;;;;;;2.35;2.15;;;;;;;19.74;38.37;101188.97;4993445;28;20046;-75
2023/04/28 09:51:06;;;;;;;3.05;2.17;;;;;;;19.68;37.66;101191.09;4993371;28;20054;-75
2023/04/28 09:53:34;;;;;;;2.25;1.90;;;;;;;19.86;39.65;101194.66;4976216;28;20602;-75
2023/04/28 09:56:04;;;;;;;2.97;1.50;;;;;;;19.98;37.24;101196.81;4993267;28;20485;-75
2023/04/28 09:58:34;;;;;;;3.13;2.13;;;;;;;20.09;38.57;101193.69;4992178;28;20046;-75
2023/04/28 10:01:05;;;;;;;3.13;2.05;;;;;;;20.19;35.52;101189.75;4993193;28;20058;-75
2023/04/28 10:03:34;;;;;;;3.72;2.22;;;;;;;20.32;38.02;101180.38;4992056;28;20053;-75
2023/04/28 10:06:03;;;;;;;1.60;1.50;;;;;;;20.39;36.70;101168.75;4993164;28;20050;-75
2023/04/28 10:08:31;;;;;;;1.48;1.38;;;;;;;20.39;35.57;101166.78;4991935;28;20057;-75
2023/04/28 10:11:00;;;;;;;2.88;1.83;;;;;;;20.59;35.52;101158.88;4993041;28;20038;-75
2023/04/28 10:13:28;;;;;;;3.67;2.53;;;;;;;20.44;37.90;101145.50;4991766;28;20050;-75
2023/04/28 10:15:57;;;;;;;3.13;2.08;;;;;;;20.34;37.77;101144.72;4991606;28;20042;-75
2023/04/28 10:18:25;;;;;;;4.82;2.28;;;;;;;20.44;38.14;101148.28;4975695;28;20042;-75
2023/04/28 10:21:04;;;;;;;2.35;2.10;;;;;;;20.06;37.34;101150.72;4992630;28;20054;-75
2023/04/28 10:23:58;;;;;;;2.88;1.90;;;;;;;20.41;38.77;101147.81;4992787;28;20050;-74
2023/04/28 10:27:07;;;;;;;6.03;2.30;;;;;;;20.43;37.55;101124.44;4992911;28;20061;-75
2023/04/28 10:29:35;;;;;;;6.25;2.50;;;;;;;20.70;37.74;101120.34;4992795;28;20054;-75
2023/04/28 10:32:16;;;;;;;2.60;2.33;;;;;;;20.67;35.78;101132.97;4992869;28;20069;-75
2023/04/28 10:34:44;;;;;;;4.35;1.90;;;;;;;20.60;35.53;101126.28;4992724;28;20043;-75
2023/04/28 10:37:14;;;;;;;3.70;1.80;;;;;;;20.79;34.60;101123.09;4992709;28;20409;-75
2023/04/28 10:40:20;;;;;;;1.90;1.20;;;;;;;21.05;33.28;101119.34;4992463;28;20066;-75
2023/04/28 10:42:55;;;;;;;2.33;1.50;;;;;;;20.82;35.26;101111.28;4991305;28;20042;-75
2023/04/28 10:45:48;;;;;;;2.47;1.50;;;;;;;21.07;33.67;101115.06;4992611;28;20046;-75
2023/04/28 10:48:21;;;;;;;2.70;1.60;;;;;;;21.32;34.53;101095.69;4992567;28;20054;-75
2023/04/28 10:51:04;;;;;;;2.20;1.48;;;;;;;21.18;34.58;101096.00;4975156;28;20042;-75
2023/04/28 10:53:43;;;;;;;1.70;1.55;;;;;;;20.97;35.03;101101.53;4992674;28;20066;-75
2023/04/28 10:56:15;;;;;;;1.70;1.30;;;;;;;21.02;34.64;101104.13;4992489;28;20057;-75
2023/04/28 10:58:45;;;;;;;3.42;1.42;;;;;;;21.16;34.19;101098.28;4992431;28;20050;-75
2023/04/28 11:01:24;;;;;;;2.00;1.50;;;;;;;21.21;33.10;101100.03;4992104;28;20058;-75
2023/04/28 11:04:02;;;;;;;2.60;1.63;;;;;;;20.72;34.52;101095.00;4974954;28;20051;-75
2023/04/28 11:06:36;;;;;;;1.60;1.50;;;;;;;21.01;33.96;101096.94;4992480;28;20045;-75
2023/04/28 11:09:13;;;;;;;1.88;1.13;;;;;;;21.14;31.20;101100.63;4992216;28;20400;-75
2023/04/28 11:11:54;;;;;;;2.40;1.30;;;;;;;21.15;30.96;101112.53;4992414;28;20046;-75
2023/04/28 11:14:22;;;;;;;2.08;1.38;;;;;;;21.24;30.50;101110.50;4992345;28;20058;-75
2023/04/28 11:16:50;;;;;;;2.33;1.25;;;;;;;21.28;32.58;101105.91;4992328;28;20436;-75
2023/04/28 11:19:21;;;;;;;1.40;1.30;;;;;;;21.49;29.61;101110.63;4992085;28;20043;-75
2023/04/28 11:21:51;;;;;;;1.27;1.00;;;;;;;21.72;31.32;101102.75;4992086;28;20047;-75
2023/04/28 11:24:19;;;;;;;1.10;1.00;;;;;;;21.57;32.89;101100.56;4992300;28;20050;-75
2023/04/28 11:26:47;;;;;;;2.03;1.50;;;;;;;21.57;31.35;101101.38;4992188;28;20043;-75
2023/04/28 11:29:15;;;;;;;2.70;1.40;;;;;;;21.58;33.00;101091.03;4995485;28;20504;-75
2023/04/28 11:31:50;;;;;;;3.88;1.92;;;;;;;21.94;31.69;101097.09;4978732;28;20043;-75
2023/04/28 11:34:22;;;;;;;6.35;1.77;;;;;;;22.00;32.55;101096.50;4996164;28;20507;-75
2023/04/28 11:36:50;;;;;;;2.67;1.83;;;;;;;21.98;31.75;101079.34;4996106;28;20046;-75
2023/04/28 11:39:31;;;;;;;2.40;1.90;;;;;;;21.94;29.77;101089.53;4995725;28;20054;-75